Creve Coeur, Missouri
Current Conditions -  °F | °C
As of 4:51 PM on Tuesday 27 Jan 2015 (Local Time) from KSTL Reporting Station
Scattered Clouds Scattered Clouds  
Wind Chill: 39°   Ceiling: Unl
Heat Index: 43°   Visibility: 10mi
Dew Point: 29°   Wind: 6mph
Humidity: 58%   Direction: 50°NE
Pressure: 30.19"   Gusts: NA
Location:  38.66°N, 90.44°W
Report Text: KSTL 272251Z 05005KT 10SM SCT032 06/M02 A3019 RMK AO2 SLP231 T00611017
Loading
Personal Weather Stations






























Interactive Weather Map New forecast layout! Learn more

10-Day Weather Forecast

Advertisements
Track Severe Weather on mobile